• Join FlightAware (Why Join?)
  • Login
  • US Flag 
08:16AM EDT


 

Airport Tracker/Info


-or-


 

Live Flight TrackerFlight Track Log ✈ AWE4079 ✈ 08-Sep-2013 ✈ KSDF - KPHL

Flight Track Log - Related Links

Times and Time Zones

All times are in EDT time to prevent confusion due to time zone crossing. See the AWE4079 flight status page for this flight to view local times or setup timezone preferences in your user account.

Time Position Orientation Groundspeed Altitude Reporting Facility
EDT Latitude Longitude Course Direction KTS MPH feet Rate Location/Type
03:02PM 38.0825 -85.6550 136° Southeast 226 260 4,600  Level Indianapolis Center
03:03PM 38.2874 -85.1935 98° East  Level Estimated
03:03PM 38.0808 -85.5597 91° East 259 298 6,200  Level Indianapolis Center
03:04PM 38.2223 -85.0801 126° Southeast  Level FlightAware Approximate
03:04PM 38.0789 -85.4583 91° East 283 326 8,600  Level Indianapolis Center
03:05PM 38.2513 -84.9445 102° East  Level Estimated
03:05PM 38.0753 -85.3544 92° East 292 336 10,600  Level Indianapolis Center
03:06PM 38.1877 -84.8432 129° Southeast  Level FlightAware Approximate
03:06PM 38.0692 -85.2217 93° East 314 361 12,700  Level Indianapolis Center
03:07PM 38.0619 -85.1078 95° East 329 379 14,500 1,620 Climbing Indianapolis Center
03:08PM 38.0556 -84.9872 94° East 339 390 16,100 1,440 Climbing Indianapolis Center
03:09PM 38.0503 -84.8628 93° East 350 403 17,600 1,380 Climbing Indianapolis Center
03:10PM 38.0411 -84.7392 95° East 351 404 19,000 1,260 Climbing Indianapolis Center
03:11PM 38.0325 -84.5886 94° East 361 415 20,300 1,140 Climbing Indianapolis Center
03:12PM 38.0236 -84.4569 95° East 370 426 21,400 1,080 Climbing Indianapolis Center
03:13PM 38.0156 -84.3239 94° East 374 430 22,600 960 Climbing Indianapolis Center
03:14PM 38.0083 -84.1869 94° East 383 441 23,500 840 Climbing Indianapolis Center
03:15PM 37.9992 -84.0481 95° East 389 448 24,400 780 Climbing Indianapolis Center
03:16PM 37.9900 -83.9075 95° East 395 455 25,200 720 Climbing Indianapolis Center
03:17PM 37.9808 -83.7381 94° East 410 472 26,000 660 Climbing Indianapolis Center
03:18PM 37.9711 -83.5919 95° East 413 475 26,600 480 Climbing Indianapolis Center
03:19PM 37.9614 -83.4456 95° East 415 478 27,000 180 Climbing Indianapolis Center
03:20PM 37.9503 -83.2928 95° East 430 495 27,000  Level Indianapolis Center
03:21PM 37.9400 -83.1386 95° East 436 502 27,000  Level Indianapolis Center
03:22PM 37.9292 -82.9906 95° East 425 489 27,000 480 Level Indianapolis Center
03:23PM 37.9172 -82.8219 95° East 414 476 28,000 960 Climbing Indianapolis Center
03:24PM 37.9078 -82.6817 95° East 403 464 29,000 480 Climbing Indianapolis Center
03:25PM 37.8967 -82.5386 96° East 405 466 29,000  Level Indianapolis Center
03:26PM 37.8847 -82.3908 96° East 416 479 29,000  Level Indianapolis Center
03:27PM 37.8739 -82.2464 95° East 413 475 29,000  Level Indianapolis Center
03:28PM 37.8617 -82.0928 96° East 414 476 29,000  Level Indianapolis Center
03:30PM 37.8506 -81.9486 96° East 413 475 29,000  Level Indianapolis Center
03:31PM 37.8383 -81.8039 96° East 415 478 29,000  Level Indianapolis Center
03:32PM 37.8247 -81.6386 96° East 417 480 29,000  Level Indianapolis Center
03:33PM 37.8119 -81.4850 96° East 416 479 29,000  Level Indianapolis Center
03:34PM 37.7992 -81.3422 96° East 419 482 29,000  Level Indianapolis Center
03:35PM 37.7875 -81.1997 96° East 419 482 29,000  Level Indianapolis Center
03:36PM 37.7872 -81.0286 90° East 416 479 29,000  Level Indianapolis Center
03:37PM 37.7967 -80.8869 85° East 417 480 29,000  Level Indianapolis Center
03:38PM 37.8056 -80.7453 85° East 416 479 29,000  Level Indianapolis Center
03:39PM 37.8136 -80.6153 85° East 407 468 29,000  Level Washington Center
03:40PM 37.8236 -80.4739 85° East 402 463 29,000  Level Washington Center
03:41PM 37.8333 -80.3378 85° East 402 463 29,000  Level Washington Center
03:42PM 37.8406 -80.2042 86° East 392 451 29,000  Level Washington Center
03:43PM 37.8492 -80.0864 85° East 379 436 29,000  Level Washington Center
03:44PM 37.8583 -79.9528 85° East 379 436 29,000  Level Washington Center
03:45PM 37.8631 -79.8214 87° East 379 436 29,000  Level Washington Center
03:46PM 37.8739 -79.6853 84° East 379 436 29,000  Level Washington Center
03:47PM 37.8828 -79.5489 85° East 384 442 29,000  Level Washington Center
03:48PM 37.8897 -79.3994 87° East 384 442 29,000  Level Washington Center
03:49PM 37.8958 -79.2653 87° East 384 442 29,000  Level Washington Center
03:50PM 37.9042 -79.1317 85° East 384 442 29,000  Level Washington Center
03:51PM 37.9186 -78.9953 82° East 384 442 29,000  Level Washington Center
03:52PM 37.9325 -78.8644 82° East 384 442 29,000  Level Washington Center
03:53PM 37.9483 -78.7464 80° East 384 442 29,000  Level Washington Center
03:54PM 37.9619 -78.6156 82° East 384 442 29,000  Level Washington Center
03:55PM 37.9800 -78.4844 80° East 384 442 29,000  Level Washington Center
03:56PM 37.9958 -78.3347 82° East 384 442 29,000  Level Washington Center
03:57PM 38.0114 -78.1983 82° East 384 442 29,000  Level Washington Center
03:58PM 38.0431 -78.0914 69° East 373 429 29,000  Level Washington Center
03:59PM 38.0994 -77.9822 57° Northeast 356 410 29,000  Level Washington Center
04:00PM 38.1558 -77.8733 57° Northeast 356 410 29,000  Level Washington Center
04:01PM 38.2100 -77.7639 58° Northeast 361 415 29,000  Level Washington Center
04:02PM 38.2642 -77.6492 59° Northeast 361 415 29,000  Level Washington Center
04:03PM 38.3181 -77.5422 57° Northeast 361 415 29,000  Level Washington Center
04:04PM 38.3719 -77.4297 59° Northeast 361 415 29,000  Level Washington Center
04:05PM 38.4278 -77.3169 58° Northeast 361 415 29,000  Level Washington Center
04:06PM 38.4814 -77.2042 59° Northeast 361 415 29,000  Level Washington Center
04:07PM 38.5369 -77.0939 57° Northeast 361 415 29,000 -660 Level Washington Center
04:08PM 38.5906 -76.9808 59° Northeast 361 415 27,700 -1,620 Descending Washington Center
04:09PM 38.6481 -76.8650 58° Northeast 366 421 25,800 -1,860 Descending Washington Center
04:10PM 38.7036 -76.7436 60° Northeast 379 436 24,100 -1,440 Descending Washington Center
04:11PM 38.7319 -76.6136 74° East 374 430 23,000 -1,500 Descending Washington Center
04:12PM 38.7600 -76.4836 74° East 374 430 21,100 -1,920 Descending Washington Center
04:13PM 38.7858 -76.3533 76° East 374 430 19,200 -1,860 Descending Washington Center
04:14PM 38.8136 -76.2203 75° East 374 430 17,400 -2,040 Descending Washington Center
04:15PM 38.8436 -76.0847 74° East 368 423 15,300 -1,320 Descending Washington Center
04:16PM 38.8689 -75.9650 75° East 354 407 14,900 -240 Descending Washington Center
04:17PM 38.8942 -75.8503 74° East 343 395 14,900 -300 Level Washington Center
04:19PM 39.0333 -75.7000 40° Northeast 334 384 14,100 -840 Descending Philadelphia TRACON
04:20PM 39.1167 -75.6667 17° North 300 345 12,600 -1,560 Descending Philadelphia TRACON
04:20PM 39.2000 -75.6667 360° North 302 348 11,200 -1,260 Descending Philadelphia TRACON
04:22PM 39.2833 -75.6500 North 294 338 10,100 -780 Descending Philadelphia TRACON
04:23PM 39.3500 -75.6000 30° Northeast 293 337 9,600 -960 Descending Philadelphia TRACON
04:23PM 39.4000 -75.5333 46° Northeast 292 336 8,300 -1,500 Descending Philadelphia TRACON
04:24PM 39.4500 -75.4500 52° Northeast 276 318 6,800 -1,200 Descending Philadelphia TRACON
04:26PM 39.5000 -75.3500 57° Northeast 278 320 5,800 -1,200 Descending Philadelphia TRACON
04:26PM 39.5333 -75.2833 57° Northeast 264 304 4,400 -960 Descending Philadelphia TRACON
04:27PM 39.6000 -75.2500 21° North 212 244 4,000 -300 Descending Philadelphia TRACON
04:28PM 39.6500 -75.2333 14° North 210 242 3,900 -840 Descending Philadelphia TRACON
04:29PM 39.7000 -75.2333 360° North 211 243 2,500 -1,020 Descending Philadelphia TRACON
04:30PM 39.7500 -75.2000 27° Northeast 167 192 1,900 -480 Descending Philadelphia TRACON
04:31PM 39.8000 -75.1833 14° North 156 180 1,600 -420 Descending Philadelphia TRACON
04:32PM 39.8333 -75.2000 339° North 135 155 1,100 -660 Descending Philadelphia TRACON
04:33PM 39.8667 -75.2167 339° North 136 157 300 -840 Descending Philadelphia TRACON